Time;durP1;ratioP1;P1;durP2;ratioP2;P2;SDS_P1;SDS_P2;PMS_P1;PMS_P2;Temp;Humidity;BMP_temperature;BMP_pressure;BME280_temperature;BME280_humidity;BME280_pressure;Samples;Min_cycle;Max_cycle;Signal;HPM_P1;HPM_P2
2022/05/28 00:00:11;;;;;;;4.13;3.33;;;;;;;13.69;100.00;96640.34;5067150;28;20084;-45
2022/05/28 00:02:40;;;;;;;3.80;3.35;;;;;;;13.82;100.00;96643.41;5057479;28;20548;-47
2022/05/28 00:05:09;;;;;;;3.40;3.10;;;;;;;13.88;100.00;96629.50;5063272;28;20064;-50
2022/05/28 00:07:39;;;;;;;3.75;3.15;;;;;;;13.88;100.00;96626.03;5058069;28;20128;-48
2022/05/28 00:10:09;;;;;;;4.55;3.13;;;;;;;13.90;100.00;96635.50;5060367;28;20076;-47
2022/05/28 00:12:37;;;;;;;3.30;3.00;;;;;;;13.93;100.00;96629.84;5067107;28;20577;-47
2022/05/28 00:15:07;;;;;;;3.95;2.50;;;;;;;13.91;100.00;96623.88;5059688;28;20095;-48
2022/05/28 00:17:36;;;;;;;3.40;2.60;;;;;;;13.92;100.00;96624.72;5062333;28;20057;-50
2022/05/28 00:20:06;;;;;;;3.53;2.88;;;;;;;13.93;100.00;96624.53;5063616;28;20067;-46
2022/05/28 00:22:39;;;;;;;3.10;2.80;;;;;;;13.89;100.00;96619.72;5052467;28;20822;-49
2022/05/28 00:25:10;;;;;;;4.80;2.65;;;;;;;13.88;100.00;96621.56;5061098;28;20520;-52
2022/05/28 00:27:38;;;;;;;2.85;2.50;;;;;;;13.85;100.00;96615.75;5057669;28;20561;-47
2022/05/28 00:30:08;;;;;;;5.30;3.00;;;;;;;13.97;100.00;96619.75;5061447;28;20068;-46
2022/05/28 00:32:36;;;;;;;4.82;2.75;;;;;;;13.94;100.00;96618.25;5062574;28;20098;-49
2022/05/28 00:35:06;;;;;;;3.83;3.00;;;;;;;14.15;100.00;96609.84;5065836;28;20060;-49
2022/05/28 00:37:35;;;;;;;2.88;2.53;;;;;;;14.12;100.00;96607.53;5055524;28;20131;-47
2022/05/28 00:40:09;;;;;;;3.10;2.80;;;;;;;14.11;100.00;96611.19;5059766;28;20068;-51
2022/05/28 00:42:37;;;;;;;4.13;2.83;;;;;;;14.06;100.00;96607.34;5058684;28;20098;-47
2022/05/28 00:45:07;;;;;;;3.10;2.80;;;;;;;14.00;100.00;96601.72;5065688;28;20075;-48
2022/05/28 00:47:35;;;;;;;4.57;3.30;;;;;;;13.90;100.00;96606.34;5058327;28;20065;-47
2022/05/28 00:50:04;;;;;;;3.72;3.10;;;;;;;14.04;100.00;96609.31;5058726;28;20064;-48
2022/05/28 00:52:33;;;;;;;4.47;3.13;;;;;;;13.95;100.00;96605.84;5053584;28;20065;-47
2022/05/28 00:55:02;;;;;;;2.95;2.60;;;;;;;14.06;100.00;96604.69;5061982;28;20073;-49
2022/05/28 00:57:32;;;;;;;3.55;2.80;;;;;;;13.97;100.00;96596.72;5064637;28;20075;-49
2022/05/28 01:00:01;;;;;;;4.07;2.85;;;;;;;14.01;100.00;96600.72;5063682;28;20440;-49
2022/05/28 01:02:39;;;;;;;4.75;3.05;;;;;;;13.91;100.00;96605.31;5063304;28;20033;-48
2022/05/28 01:05:12;;;;;;;3.25;2.80;;;;;;;13.94;100.00;96612.13;5060633;28;20056;-46
2022/05/28 01:07:42;;;;;;;4.40;2.85;;;;;;;13.95;100.00;96601.34;5053838;28;20063;-48
2022/05/28 01:10:14;;;;;;;4.10;3.17;;;;;;;13.95;100.00;96600.53;5054073;28;20065;-47
2022/05/28 01:12:48;;;;;;;4.30;3.25;;;;;;;13.95;100.00;96606.66;5058949;28;20064;-46
2022/05/28 01:15:20;;;;;;;5.00;2.92;;;;;;;13.84;100.00;96603.50;5065204;28;20470;-48
2022/05/28 01:17:50;;;;;;;3.53;3.22;;;;;;;13.89;100.00;96596.69;5065191;28;20072;-47
2022/05/28 01:20:22;;;;;;;3.92;3.30;;;;;;;13.84;100.00;96600.84;5065708;28;20071;-47
2022/05/28 01:23:14;;;;;;;4.15;2.75;;;;;;;13.83;100.00;96600.00;5060392;28;20082;-46
2022/05/28 01:25:51;;;;;;;4.07;3.17;;;;;;;13.80;100.00;96603.00;5060413;28;20091;-47
2022/05/28 01:28:24;;;;;;;4.22;3.38;;;;;;;13.74;100.00;96598.31;5068012;28;20060;-47
2022/05/28 01:30:53;;;;;;;3.28;2.97;;;;;;;13.80;100.00;96594.19;5066603;28;20454;-52
2022/05/28 01:33:22;;;;;;;3.35;3.05;;;;;;;13.66;100.00;96591.19;5068610;28;20084;-47
2022/05/28 01:35:52;;;;;;;5.18;3.13;;;;;;;13.66;100.00;96588.53;5063327;28;20087;-52
2022/05/28 01:38:21;;;;;;;3.90;3.33;;;;;;;13.64;100.00;96587.03;5066247;28;20064;-46
2022/05/28 01:40:49;;;;;;;4.55;3.15;;;;;;;13.63;100.00;96598.63;5068601;28;20064;-46
2022/05/28 01:43:19;;;;;;;3.90;3.30;;;;;;;13.69;100.00;96582.06;5055447;28;20496;-50
2022/05/28 01:45:49;;;;;;;;;;;;;;;13.49;100.00;96595.59;5062799;28;20088;-47
2022/05/28 01:48:19;;;;;;;4.28;2.97;;;;;;;13.51;100.00;96601.53;5067630;28;19968;-48
2022/05/28 01:50:50;;;;;;;3.50;2.92;;;;;;;13.45;100.00;96596.03;5064727;28;20474;-45
2022/05/28 01:56:07;;;;;;;3.50;3.20;;;;;;;13.45;100.00;96598.69;5054592;28;20113;-47
2022/05/28 01:58:35;;;;;;;4.88;3.28;;;;;;;13.45;100.00;96591.56;5066306;28;20061;-49
2022/05/28 02:01:07;;;;;;;4.47;3.33;;;;;;;13.36;100.00;96599.66;5059465;28;20519;-46
2022/05/28 02:03:40;;;;;;;6.53;3.45;;;;;;;13.42;100.00;96594.56;5060044;28;20064;-45
2022/05/28 02:06:08;;;;;;;4.70;3.35;;;;;;;13.37;100.00;96588.91;5057660;28;20081;-46
2022/05/28 02:08:40;;;;;;;4.53;3.42;;;;;;;13.34;100.00;96589.22;5066279;28;20069;-49
2022/05/28 02:11:12;;;;;;;5.78;3.45;;;;;;;13.35;100.00;96592.69;5067979;28;20060;-46
2022/05/28 02:13:51;;;;;;;4.82;3.60;;;;;;;13.31;100.00;96589.53;5060721;28;20076;-46
2022/05/28 02:16:26;;;;;;;6.03;3.58;;;;;;;13.34;100.00;96588.38;5069137;28;20116;-50
2022/05/28 02:18:57;;;;;;;3.50;3.00;;;;;;;13.32;100.00;96591.22;5062855;28;20075;-48
2022/05/28 02:21:33;;;;;;;6.20;3.55;;;;;;;13.30;100.00;96598.47;5067013;28;20597;-50
2022/05/28 02:24:03;;;;;;;4.13;3.53;;;;;;;13.22;100.00;96596.59;5063257;28;20116;-54
2022/05/28 02:26:36;;;;;;;4.60;3.22;;;;;;;13.27;100.00;96590.84;5064355;28;20068;-47
2022/05/28 02:29:05;;;;;;;5.25;3.80;;;;;;;13.43;100.00;96582.16;5064365;28;20068;-51
2022/05/28 02:31:35;;;;;;;5.65;4.13;;;;;;;13.42;100.00;96580.47;5064233;28;20063;-47
2022/05/28 02:34:04;;;;;;;4.65;3.78;;;;;;;13.35;100.00;96575.00;5061766;28;20514;-46
2022/05/28 02:36:32;;;;;;;5.80;3.97;;;;;;;13.43;100.00;96577.66;5064735;28;20076;-51
2022/05/28 02:39:01;;;;;;;4.95;4.13;;;;;;;13.38;100.00;96576.47;5066901;28;20160;-51
2022/05/28 02:41:29;;;;;;;6.35;3.83;;;;;;;13.43;100.00;96579.50;5060723;28;20076;-51
2022/05/28 02:43:57;;;;;;;4.93;3.05;;;;;;;13.33;100.00;96566.38;5063888;28;20056;-51
2022/05/28 02:46:26;;;;;;;11.38;3.83;;;;;;;13.30;100.00;96564.03;5061156;28;20040;-51
2022/05/28 02:48:55;;;;;;;7.97;3.92;;;;;;;13.26;100.00;96562.69;5060613;28;20086;-46
2022/05/28 02:51:24;;;;;;;8.00;3.80;;;;;;;13.25;100.00;96558.41;5063318;28;20064;-46
2022/05/28 02:53:54;;;;;;;7.90;3.70;;;;;;;13.18;100.00;96549.38;5061001;28;20351;-47
2022/05/28 02:56:23;;;;;;;7.47;3.77;;;;;;;13.42;100.00;96543.38;5063078;28;20540;-48
2022/05/28 02:58:51;;;;;;;7.18;3.45;;;;;;;13.40;100.00;96546.19;5064214;28;20470;-47
2022/05/28 03:01:23;;;;;;;6.78;3.78;;;;;;;13.48;100.00;96546.22;5062188;28;20097;-46
2022/05/28 03:03:52;;;;;;;6.97;3.58;;;;;;;13.49;100.00;96552.38;5061969;28;20056;-49
2022/05/28 03:06:22;;;;;;;7.40;3.33;;;;;;;13.35;100.00;96560.91;5057662;28;20474;-48
2022/05/28 03:08:50;;;;;;;8.80;3.60;;;;;;;13.32;100.00;96561.22;5057296;28;20072;-51
2022/05/28 03:11:18;;;;;;;6.07;3.60;;;;;;;13.43;100.00;96553.84;5063588;28;20491;-50
2022/05/28 03:13:47;;;;;;;5.70;3.88;;;;;;;13.41;100.00;96544.38;5060226;28;20139;-51
2022/05/28 03:16:15;;;;;;;7.15;3.78;;;;;;;13.17;100.00;96563.59;5060339;28;20510;-52
2022/05/28 03:18:44;;;;;;;7.03;3.20;;;;;;;13.21;100.00;96565.81;5057248;28;20068;-48
2022/05/28 03:21:13;;;;;;;7.07;3.50;;;;;;;13.28;100.00;96552.75;5059314;28;20088;-48
2022/05/28 03:23:47;;;;;;;7.45;3.33;;;;;;;13.20;100.00;96556.19;5060413;28;20423;-50
2022/05/28 03:26:17;;;;;;;6.60;3.50;;;;;;;13.13;100.00;96564.91;5057885;28;20141;-48
2022/05/28 03:28:46;;;;;;;6.90;3.50;;;;;;;13.02;100.00;96569.50;5056398;28;20065;-46
2022/05/28 03:31:14;;;;;;;8.48;3.60;;;;;;;13.08;100.00;96570.69;5060965;28;20076;-48
2022/05/28 03:33:43;;;;;;;9.35;3.50;;;;;;;13.07;100.00;96571.66;5065165;28;20064;-47
2022/05/28 03:36:11;;;;;;;8.85;3.60;;;;;;;12.94;100.00;96572.09;5064508;28;20108;-47
2022/05/28 03:38:41;;;;;;;7.97;3.10;;;;;;;12.87;100.00;96586.97;5062392;28;20454;-46
2022/05/28 03:41:10;;;;;;;9.23;3.80;;;;;;;12.84;100.00;96579.31;5060629;28;20069;-48
2022/05/28 03:43:38;;;;;;;6.32;3.45;;;;;;;12.81;100.00;96580.47;5063145;28;20483;-47
2022/05/28 03:46:19;;;;;;;11.43;4.00;;;;;;;12.99;100.00;96567.16;5059166;28;20166;-51
2022/05/28 03:48:47;;;;;;;6.03;3.60;;;;;;;12.99;100.00;96572.47;5060488;28;20071;-49
2022/05/28 03:51:15;;;;;;;7.03;3.55;;;;;;;12.83;100.00;96581.16;5058267;28;20084;-48
2022/05/28 03:53:45;;;;;;;6.60;3.65;;;;;;;12.95;100.00;96581.69;5058401;28;20080;-47
2022/05/28 03:56:13;;;;;;;7.80;3.58;;;;;;;12.94;100.00;96580.06;5054669;28;20079;-52
2022/05/28 03:58:42;;;;;;;6.03;3.30;;;;;;;12.83;100.00;96585.59;5061019;28;20510;-47
2022/05/28 04:01:11;;;;;;;8.23;3.38;;;;;;;12.73;100.00;96593.66;5057270;28;20072;-51
2022/05/28 04:03:39;;;;;;;3.67;2.42;;;;;;;12.70;100.00;96590.47;5064489;28;20063;-46
2022/05/28 04:06:07;;;;;;;7.10;3.00;;;;;;;12.72;100.00;96588.50;5064356;28;20075;-46
2022/05/28 04:08:36;;;;;;;7.13;2.53;;;;;;;12.68;100.00;96589.78;5063299;28;20076;-49
2022/05/28 04:11:05;;;;;;;6.72;2.00;;;;;;;12.43;100.00;96596.72;5059612;28;20098;-49
2022/05/28 04:13:34;;;;;;;7.18;2.50;;;;;;;12.38;100.00;96599.78;5060831;28;20060;-52
2022/05/28 04:16:03;;;;;;;6.00;2.53;;;;;;;12.31;100.00;96598.75;5062791;28;20075;-49
2022/05/28 04:18:31;;;;;;;6.38;2.47;;;;;;;12.11;100.00;96604.19;5060873;28;20083;-49
2022/05/28 04:20:59;;;;;;;6.05;2.28;;;;;;;12.08;100.00;96601.03;5061150;28;20064;-46
2022/05/28 04:23:28;;;;;;;6.07;2.70;;;;;;;12.00;100.00;96603.56;5062552;28;20522;-48
2022/05/28 04:25:56;;;;;;;6.00;2.63;;;;;;;12.20;100.00;96606.91;5062501;28;20071;-50
2022/05/28 04:28:25;;;;;;;7.30;2.83;;;;;;;12.10;100.00;96604.34;5063441;28;20068;-50
2022/05/28 04:30:56;;;;;;;3.90;2.42;;;;;;;12.02;100.00;96613.03;5061582;28;20068;-46
2022/05/28 04:33:25;;;;;;;7.13;2.72;;;;;;;12.06;100.00;96616.19;5064220;28;20407;-47
2022/05/28 04:35:53;;;;;;;8.40;2.97;;;;;;;12.16;100.00;96614.31;5063465;28;20067;-49
2022/05/28 04:38:23;;;;;;;8.95;3.42;;;;;;;12.19;100.00;96610.53;5060381;28;20068;-47
2022/05/28 04:40:51;;;;;;;9.73;3.67;;;;;;;11.75;100.00;96619.13;5061226;28;20064;-47
2022/05/28 04:43:20;;;;;;;6.25;3.40;;;;;;;12.03;100.00;96619.97;5062241;28;20083;-48
2022/05/28 04:45:49;;;;;;;5.50;2.63;;;;;;;11.59;100.00;96618.94;5059665;28;20514;-47
2022/05/28 04:48:18;;;;;;;9.40;3.38;;;;;;;11.71;100.00;96620.41;5061334;28;20545;-49
2022/05/28 04:50:46;;;;;;;4.47;2.78;;;;;;;11.60;100.00;96620.63;5061777;28;20118;-51
2022/05/28 04:53:14;;;;;;;5.82;3.10;;;;;;;11.46;100.00;96624.59;5057440;28;20064;-51
2022/05/28 04:55:44;;;;;;;5.95;2.80;;;;;;;11.37;100.00;96631.56;5063519;28;20068;-50
2022/05/28 04:58:13;;;;;;;7.75;2.88;;;;;;;11.36;100.00;96624.63;5066701;28;20069;-51
2022/05/28 05:00:42;;;;;;;6.72;2.60;;;;;;;11.58;100.00;96617.28;5057160;28;20060;-47
2022/05/28 05:03:12;;;;;;;6.75;2.70;;;;;;;11.54;100.00;96613.28;5063370;28;20550;-51
2022/05/28 05:05:41;;;;;;;5.38;2.90;;;;;;;11.44;100.00;96623.06;5064653;28;20068;-51
2022/05/28 05:08:09;;;;;;;9.77;3.40;;;;;;;11.50;100.00;96619.84;5064963;28;20079;-50
2022/05/28 05:10:38;;;;;;;5.60;2.80;;;;;;;11.51;100.00;96626.78;5062665;28;20519;-49
2022/05/28 05:13:06;;;;;;;9.65;3.33;;;;;;;11.68;100.00;96625.16;5061630;28;20088;-49
2022/05/28 05:15:35;;;;;;;7.45;3.22;;;;;;;11.65;100.00;96623.66;5062716;28;20067;-46
2022/05/28 05:18:03;;;;;;;5.18;3.17;;;;;;;11.59;100.00;96617.13;5061050;28;20087;-48
2022/05/28 05:20:34;;;;;;;8.13;2.90;;;;;;;11.83;100.00;96635.06;5062820;28;20056;-48
2022/05/28 05:23:02;;;;;;;10.65;3.22;;;;;;;11.96;100.00;96629.47;5062477;28;20076;-52
2022/05/28 05:25:31;;;;;;;5.43;3.30;;;;;;;12.04;100.00;96634.00;5063199;28;20061;-52
2022/05/28 05:27:59;;;;;;;6.72;3.28;;;;;;;11.77;100.00;96632.22;5063611;28;20061;-47
2022/05/28 05:30:27;;;;;;;8.70;3.75;;;;;;;11.94;100.00;96630.59;5066890;28;20077;-47
2022/05/28 05:32:56;;;;;;;9.73;3.28;;;;;;;11.97;100.00;96623.19;5057104;28;20077;-48
2022/05/28 05:35:24;;;;;;;6.30;3.15;;;;;;;12.10;100.00;96628.94;5060955;28;20101;-48
2022/05/28 05:37:54;;;;;;;7.05;3.28;;;;;;;12.18;100.00;96630.88;5055262;28;20072;-48
2022/05/28 05:40:22;;;;;;;9.57;3.47;;;;;;;12.35;100.00;96623.91;5064519;28;20091;-47
2022/05/28 05:42:50;;;;;;;6.95;3.30;;;;;;;12.23;100.00;96638.34;5069694;28;20063;-47
2022/05/28 05:45:19;;;;;;;12.23;3.38;;;;;;;12.41;100.00;96625.13;5062856;28;20076;-47
2022/05/28 05:47:47;;;;;;;7.88;3.38;;;;;;;12.56;100.00;96632.38;5063552;28;20075;-47
2022/05/28 05:50:15;;;;;;;11.63;4.10;;;;;;;12.42;100.00;96632.06;5066511;28;20056;-47
2022/05/28 05:52:43;;;;;;;7.25;3.42;;;;;;;12.56;100.00;96636.84;5051643;28;20557;-48
2022/05/28 05:55:18;;;;;;;7.03;3.50;;;;;;;12.71;100.00;96632.66;5070529;28;20471;-51
2022/05/28 05:57:46;;;;;;;8.68;3.78;;;;;;;12.65;100.00;96632.44;5061813;28;20087;-49
2022/05/28 06:00:16;;;;;;;9.38;3.50;;;;;;;12.89;100.00;96640.53;5070511;28;20083;-49
2022/05/28 06:02:44;;;;;;;8.30;3.05;;;;;;;13.13;100.00;96628.47;5062133;28;20084;-51
2022/05/28 06:05:13;;;;;;;7.18;3.20;;;;;;;12.75;100.00;96626.06;5063788;28;20527;-48
2022/05/28 06:07:41;;;;;;;9.07;3.08;;;;;;;13.32;100.00;96628.28;5064480;28;20079;-48
2022/05/28 06:10:10;;;;;;;10.60;3.80;;;;;;;13.26;100.00;96631.56;5069224;28;20060;-48
2022/05/28 06:12:40;;;;;;;12.57;3.75;;;;;;;13.46;100.00;96627.69;5061955;28;20530;-50
2022/05/28 06:15:10;;;;;;;7.22;3.22;;;;;;;13.64;100.00;96630.25;5065781;28;20084;-47
2022/05/28 06:17:38;;;;;;;10.70;3.50;;;;;;;13.62;100.00;96618.97;5051052;28;20076;-49
2022/05/28 06:20:09;;;;;;;7.10;3.05;;;;;;;13.88;100.00;96612.78;5058442;28;20499;-47
2022/05/28 06:22:38;;;;;;;9.70;3.60;;;;;;;14.07;100.00;96615.13;5057467;28;20075;-51
2022/05/28 06:25:06;;;;;;;9.95;3.65;;;;;;;14.00;100.00;96611.47;5065711;28;20064;-50
2022/05/28 06:27:35;;;;;;;8.73;3.28;;;;;;;14.23;100.00;96611.69;5064820;28;20067;-48
2022/05/28 06:30:06;;;;;;;5.35;2.55;;;;;;;14.77;100.00;96604.13;5062732;28;20085;-46
2022/05/28 06:32:34;;;;;;;6.53;2.38;;;;;;;14.35;100.00;96605.09;5060720;28;20068;-52
2022/05/28 06:35:03;;;;;;;8.57;2.60;;;;;;;14.56;100.00;96607.28;5054704;28;20068;-51
2022/05/28 06:37:31;;;;;;;11.63;2.70;;;;;;;14.45;100.00;96600.44;5059641;28;20068;-48
2022/05/28 06:39:59;;;;;;;7.40;2.10;;;;;;;14.22;100.00;96608.22;5057020;28;20098;-48
2022/05/28 06:42:28;;;;;;;6.82;2.53;;;;;;;14.52;100.00;96605.09;5053321;28;20114;-47
2022/05/28 06:44:57;;;;;;;6.32;3.03;;;;;;;14.37;100.00;96610.22;5061079;28;20083;-45
2022/05/28 06:47:27;;;;;;;3.92;2.13;;;;;;;14.55;100.00;96607.44;5057264;28;20069;-51
2022/05/28 06:52:37;;;;;;;7.85;2.67;;;;;;;14.88;100.00;96606.41;5068206;28;20040;-51
2022/05/28 06:55:06;;;;;;;6.07;2.40;;;;;;;14.45;100.00;96611.06;5061402;28;20574;-50
2022/05/28 06:57:35;;;;;;;5.85;2.90;;;;;;;14.71;100.00;96607.44;5066058;28;20128;-48
2022/05/28 07:00:04;;;;;;;10.40;2.95;;;;;;;14.65;100.00;96613.41;5061638;28;20091;-48
2022/05/28 07:02:34;;;;;;;6.88;2.63;;;;;;;14.65;100.00;96616.06;5051111;28;20099;-48
2022/05/28 07:05:02;;;;;;;8.33;3.37;;;;;;;14.46;100.00;96610.06;5052536;28;20064;-48
2022/05/28 07:07:31;;;;;;;7.88;2.85;;;;;;;14.78;100.00;96607.59;5069174;28;20478;-50
2022/05/28 07:09:59;;;;;;;10.35;3.50;;;;;;;15.20;100.00;96599.38;5058633;28;20154;-48
2022/05/28 07:12:27;;;;;;;10.13;2.95;;;;;;;14.92;100.00;96601.59;5054117;28;20080;-49
2022/05/28 07:14:55;;;;;;;8.73;2.38;;;;;;;14.19;100.00;96605.88;5068275;28;20056;-47
2022/05/28 07:17:24;;;;;;;7.07;2.75;;;;;;;14.59;100.00;96608.75;5054650;28;20056;-49
2022/05/28 07:19:53;;;;;;;6.40;2.50;;;;;;;14.53;100.00;96598.81;5072655;28;20083;-48
2022/05/28 07:22:22;;;;;;;5.37;2.70;;;;;;;14.20;100.00;96591.63;5069426;28;20068;-49
2022/05/28 07:24:50;;;;;;;9.32;2.97;;;;;;;14.91;100.00;96602.59;5065686;28;20040;-49
2022/05/28 07:27:19;;;;;;;7.55;3.13;;;;;;;14.86;100.00;96599.63;5060142;28;20088;-47
2022/05/28 07:29:47;;;;;;;7.95;2.60;;;;;;;15.04;100.00;96594.13;5068724;28;21736;-48
2022/05/28 07:32:15;;;;;;;8.85;2.42;;;;;;;14.60;100.00;96591.84;5052904;28;20091;-53
2022/05/28 07:34:44;;;;;;;9.10;2.58;;;;;;;14.94;100.00;96586.34;5065687;28;20064;-45
2022/05/28 07:37:13;;;;;;;6.47;2.70;;;;;;;15.02;100.00;96594.28;5064822;28;20067;-54
2022/05/28 07:39:42;;;;;;;4.03;1.80;;;;;;;14.66;100.00;96596.50;5060300;28;20091;-48
2022/05/28 07:42:10;;;;;;;6.55;2.30;;;;;;;15.01;100.00;96597.13;5056685;28;20515;-49
2022/05/28 07:44:38;;;;;;;5.65;2.20;;;;;;;14.71;100.00;96587.03;5050953;28;20069;-51
2022/05/28 07:47:08;;;;;;;4.30;2.17;;;;;;;15.09;100.00;96587.28;5056194;28;20538;-49
2022/05/28 07:49:37;;;;;;;4.38;2.08;;;;;;;14.98;100.00;96592.97;5053144;28;20467;-47
2022/05/28 07:52:06;;;;;;;6.10;2.08;;;;;;;15.02;100.00;96590.81;5055650;28;20064;-51
2022/05/28 07:54:36;;;;;;;7.35;2.50;;;;;;;15.18;100.00;96591.59;5051125;28;20041;-53
2022/05/28 07:57:05;;;;;;;9.25;2.38;;;;;;;15.11;100.00;96597.78;5063182;28;20084;-48
2022/05/28 07:59:33;;;;;;;4.63;1.92;;;;;;;14.79;100.00;96595.97;5062460;28;20101;-53
2022/05/28 08:02:01;;;;;;;11.43;2.75;;;;;;;14.85;100.00;96596.13;5057653;28;20078;-53
2022/05/28 08:04:30;;;;;;;5.70;2.47;;;;;;;15.30;100.00;96596.53;5055749;28;20076;-50
2022/05/28 08:06:58;;;;;;;6.80;2.72;;;;;;;15.11;100.00;96590.63;5062960;28;20083;-50
2022/05/28 08:09:27;;;;;;;8.25;2.80;;;;;;;15.44;100.00;96585.19;5055941;28;20092;-48
2022/05/28 08:11:57;;;;;;;6.78;2.50;;;;;;;15.32;100.00;96597.22;5061885;28;20686;-54
2022/05/28 08:14:25;;;;;;;8.17;2.33;;;;;;;15.05;100.00;96587.81;5052909;28;20072;-50
2022/05/28 08:16:53;;;;;;;5.60;2.17;;;;;;;15.59;100.00;96585.31;5065217;28;20450;-52
2022/05/28 08:19:22;;;;;;;9.07;2.67;;;;;;;14.83;100.00;96586.66;5058531;28;20088;-56
2022/05/28 08:24:37;;;;;;;5.35;1.85;;;;;;;14.85;100.00;96592.66;5060668;28;20064;-51
2022/05/28 08:27:06;;;;;;;10.88;2.08;;;;;;;15.09;100.00;96594.44;5062164;28;20603;-50
2022/05/28 08:29:35;;;;;;;6.05;1.80;;;;;;;14.95;100.00;96598.63;5065636;28;20064;-49
2022/05/28 08:32:03;;;;;;;5.13;2.00;;;;;;;15.44;100.00;96598.47;5066708;28;20067;-48
2022/05/28 08:34:32;;;;;;;4.80;1.98;;;;;;;15.42;100.00;96603.16;5068495;28;20068;-51
2022/05/28 08:37:00;;;;;;;4.20;1.65;;;;;;;15.31;100.00;96603.50;5060118;28;20064;-48
2022/05/28 08:39:31;;;;;;;6.82;2.03;;;;;;;15.19;100.00;96603.88;5055096;28;20080;-49
2022/05/28 08:41:59;;;;;;;4.55;1.98;;;;;;;15.63;96.80;96614.03;5055028;28;20080;-49
2022/05/28 08:44:31;;;;;;;6.05;2.20;;;;;;;15.57;100.00;96604.09;5049821;28;20460;-49
2022/05/28 08:47:07;;;;;;;4.10;1.70;;;;;;;15.27;100.00;96610.16;5057355;28;20079;-50
2022/05/28 08:49:38;;;;;;;4.85;1.77;;;;;;;15.82;100.00;96602.16;5048410;28;20064;-51
2022/05/28 08:52:07;;;;;;;;;;;;;;;15.47;100.00;96605.28;5052354;28;20072;-50
2022/05/28 08:54:38;;;;;;;6.47;2.05;;;;;;;15.38;100.00;96621.28;5062203;28;20012;-47
2022/05/28 08:57:11;;;;;;;4.15;1.95;;;;;;;15.74;100.00;96609.38;5059876;28;20482;-48
2022/05/28 08:59:45;;;;;;;5.28;2.08;;;;;;;15.65;100.00;96611.19;5061132;28;20549;-49
2022/05/28 09:02:21;;;;;;;2.33;1.38;;;;;;;15.61;100.00;96618.69;5059227;28;20072;-47
2022/05/28 09:04:50;;;;;;;3.30;1.52;;;;;;;15.78;100.00;96610.69;5062963;28;20061;-47
2022/05/28 09:07:18;;;;;;;6.38;1.70;;;;;;;15.51;100.00;96611.91;5055550;28;20135;-48
2022/05/28 09:09:48;;;;;;;8.80;1.90;;;;;;;15.29;93.98;96606.34;5048267;28;20076;-47
2022/05/28 09:12:19;;;;;;;5.47;1.73;;;;;;;15.29;100.00;96606.34;5056138;28;20087;-47
2022/05/28 09:14:48;;;;;;;;;;;;;;;15.76;100.00;96604.69;5068772;28;20090;-46
2022/05/28 09:17:24;;;;;;;3.08;1.60;;;;;;;15.83;100.00;96598.53;5053697;28;19964;-48
2022/05/28 09:19:54;;;;;;;2.75;1.63;;;;;;;15.82;100.00;96604.00;5049924;28;20068;-49
2022/05/28 09:22:24;;;;;;;6.20;1.92;;;;;;;15.93;100.00;96598.28;5059477;28;20072;-51
2022/05/28 09:24:52;;;;;;;5.67;1.53;;;;;;;16.16;100.00;96598.34;5061289;28;20130;-51
2022/05/28 09:27:29;;;;;;;5.78;1.73;;;;;;;15.91;100.00;96589.69;5063161;28;20507;-54
2022/05/28 09:30:17;;;;;;;3.22;1.50;;;;;;;15.68;100.00;96589.63;5058581;28;20091;-49
2022/05/28 09:33:07;;;;;;;4.55;1.80;;;;;;;16.07;100.00;96586.94;5058916;28;20510;-49
2022/05/28 09:35:48;;;;;;;2.90;1.48;;;;;;;16.23;100.00;96588.63;5051485;28;20068;-50
2022/05/28 09:38:21;;;;;;;3.97;1.52;;;;;;;16.07;100.00;96602.88;5052742;28;20073;-51
2022/05/28 09:40:51;;;;;;;5.78;1.70;;;;;;;16.57;100.00;96596.22;5059876;28;20064;-50
2022/05/28 09:43:29;;;;;;;2.03;1.38;;;;;;;16.41;100.00;96590.19;5063029;28;20064;-52
2022/05/28 09:46:07;;;;;;;3.53;1.67;;;;;;;16.60;100.00;96584.38;5060252;28;20075;-49
2022/05/28 09:48:36;;;;;;;3.90;1.88;;;;;;;15.95;100.00;96585.66;5062914;28;20413;-54
2022/05/28 09:51:04;;;;;;;5.03;1.50;;;;;;;16.05;100.00;96583.59;5063390;28;20158;-52
2022/05/28 09:56:25;;;;;;;3.55;1.60;;;;;;;17.19;100.00;96586.34;5072487;28;20068;-48
2022/05/28 09:58:54;;;;;;;4.82;1.80;;;;;;;16.67;100.00;96595.13;5064693;28;20442;-49
2022/05/28 10:01:25;;;;;;;8.18;2.13;;;;;;;16.64;100.00;96587.50;5061999;28;20084;-48
2022/05/28 10:06:46;;;;;;;3.22;1.40;;;;;;;17.18;99.08;96585.53;5063548;28;20063;-50
2022/05/28 10:09:18;;;;;;;2.40;1.40;;;;;;;17.55;89.26;96571.28;5070308;28;20088;-48
2022/05/28 10:11:53;;;;;;;4.80;1.60;;;;;;;17.36;71.70;96587.00;5066830;28;20087;-57
2022/05/28 10:14:23;;;;;;;6.93;1.85;;;;;;;17.83;69.91;96577.81;5070948;28;20064;-52
2022/05/28 10:16:57;;;;;;;5.03;1.50;;;;;;;18.01;100.00;96579.03;5053020;28;20149;-51
2022/05/28 10:19:31;;;;;;;4.03;1.25;;;;;;;17.61;100.00;96584.88;5056478;28;20456;-56
2022/05/28 10:22:01;;;;;;;4.65;1.48;;;;;;;16.77;100.00;96585.09;5063241;28;20070;-49
2022/05/28 10:24:39;;;;;;;3.53;1.52;;;;;;;16.89;100.00;96580.16;5069048;28;20059;-48
2022/05/28 10:27:23;;;;;;;6.35;1.67;;;;;;;17.31;84.22;96577.72;5064085;28;20079;-50
2022/05/28 10:29:52;;;;;;;2.22;1.13;;;;;;;17.51;81.79;96574.47;5066727;28;20455;-50
2022/05/28 10:32:29;;;;;;;3.33;1.73;;;;;;;17.63;88.80;96570.34;5070679;28;20910;-53
2022/05/28 10:35:06;;;;;;;3.83;1.20;;;;;;;18.13;80.67;96570.53;5062000;28;20436;-47
2022/05/28 10:37:34;;;;;;;8.20;1.50;;;;;;;18.02;100.00;96564.66;5063836;28;20045;-49
2022/05/28 10:40:19;;;;;;;4.07;1.42;;;;;;;18.33;75.17;96550.19;5055582;28;20069;-53
2022/05/28 10:42:47;;;;;;;4.00;1.35;;;;;;;18.24;77.96;96556.69;5055550;28;20098;-51
2022/05/28 10:45:18;;;;;;;1.48;1.10;;;;;;;17.46;86.11;96568.88;5062839;28;20647;-51
2022/05/28 10:48:08;;;;;;;2.40;1.25;;;;;;;17.97;89.95;96561.75;5061148;28;20080;-49
2022/05/28 10:50:44;;;;;;;3.72;1.17;;;;;;;17.50;85.84;96575.50;5050848;28;20068;-50
2022/05/28 10:53:21;;;;;;;2.67;1.20;;;;;;;17.87;60.98;96561.22;5059212;28;20076;-54
2022/05/28 10:56:09;;;;;;;2.47;1.10;;;;;;;18.17;77.39;96551.28;5057570;28;20083;-50
2022/05/28 10:58:50;;;;;;;1.70;1.20;;;;;;;18.28;60.20;96552.63;5067840;28;20102;-47
2022/05/28 11:01:39;;;;;;;3.55;1.10;;;;;;;18.69;73.00;96560.81;5054170;28;20033;-50
2022/05/28 11:04:24;;;;;;;2.45;1.30;;;;;;;18.50;66.41;96554.25;5056924;28;20117;-48
2022/05/28 11:07:18;;;;;;;1.73;1.20;;;;;;;18.49;71.84;96549.94;5067853;28;20462;-48
2022/05/28 11:09:57;;;;;;;2.20;1.02;;;;;;;18.57;75.33;96553.50;5069380;28;20074;-51
2022/05/28 11:12:40;;;;;;;2.42;1.30;;;;;;;17.53;78.83;96551.13;5060188;28;20095;-52
2022/05/28 11:15:41;;;;;;;4.20;1.40;;;;;;;17.63;78.67;96546.34;5051274;28;20087;-52
2022/05/28 11:18:33;;;;;;;3.15;1.20;;;;;;;17.24;76.64;96558.16;5059701;28;20307;-53
2022/05/28 11:21:12;;;;;;;3.47;1.20;;;;;;;17.48;74.21;96553.53;5062579;28;20091;-50
2022/05/28 11:23:57;;;;;;;6.60;1.67;;;;;;;17.93;74.32;96549.00;5049929;28;20515;-52
2022/05/28 11:26:31;;;;;;;4.72;1.20;;;;;;;18.03;79.09;96539.66;5052622;28;20063;-52
2022/05/28 11:29:18;;;;;;;1.35;1.10;;;;;;;17.83;66.55;96541.28;5066847;28;20064;-55
2022/05/28 11:31:49;;;;;;;3.63;1.15;;;;;;;17.61;73.60;96519.03;5067690;28;20072;-48
2022/05/28 11:34:20;;;;;;;3.17;1.30;;;;;;;17.53;72.42;96532.47;5065646;28;20435;-50
2022/05/28 11:36:53;;;;;;;3.25;1.27;;;;;;;18.06;60.60;96521.59;5063148;28;20083;-53
2022/05/28 11:39:24;;;;;;;1.65;1.00;;;;;;;17.84;65.45;96534.09;5049980;28;20103;-51
2022/05/28 11:41:55;;;;;;;4.60;1.10;;;;;;;17.60;77.13;96516.56;5061831;28;20091;-46
2022/05/28 11:44:28;;;;;;;2.78;1.10;;;;;;;17.68;73.86;96514.59;5057516;28;20068;-46
2022/05/28 11:47:06;;;;;;;2.05;1.00;;;;;;;17.66;66.38;96513.16;5062237;28;20499;-48
2022/05/28 11:52:33;;;;;;;3.28;1.27;;;;;;;17.42;68.73;96516.97;5066878;28;20064;-51
2022/05/28 11:55:07;;;;;;;1.95;1.02;;;;;;;17.92;64.36;96516.13;5060736;28;20072;-53
2022/05/28 11:57:40;;;;;;;2.53;1.20;;;;;;;18.25;61.00;96504.97;5061506;28;20060;-52
2022/05/28 12:00:11;;;;;;;5.53;1.30;;;;;;;19.52;47.41;96503.97;5066540;28;20080;-47